Maersk Volta — 9V2317 — position and weather

sailwx.info

Track history (hours):
 
Tides and Currents Weather Stations Pressure Air Temp Water Temp Dewpoint Dewpoint Depression Visibility Wind Speed Wind Dir Waves Ship Positions

Maersk Volta

Last reported at 2017-Nov-19 05:35 UTC. Time now 2017-Nov-19 07:02 UTC.
Position N 40°12' W 009°18'.

Length 176 m; draft 9.3 m.

Type: Cargo ship. MMSI: 563430000.

Date/timePositionNaut miles runAvg speedWind from/ knotsBaromVisibWave heightAir tempDewpointWater temp
2017-Nov-19 05:35N 40°12' W 009°18'8 9.3
2017-Nov-19 04:45N 40°05' W 009°22'3 9.1
2017-Nov-19 04:27N 40°02' W 009°24'4 8.7
2017-Nov-19 03:59N 39°59' W 009°26'4 8.8
2017-Nov-19 03:30N 39°55' W 009°28'5 9.0
2017-Nov-19 03:00N 39°51' W 009°31'4 9.0
2017-Nov-19 02:30N 39°47' W 009°33'5 9.1
2017-Nov-19 02:00N 39°43' W 009°35'4 8.8
2017-Nov-19 01:30N 39°39' W 009°38'4 8.5
2017-Nov-19 01:00N 39°35' W 009°40'4 8.3
2017-Nov-19 00:30N 39°31' W 009°42'5 9.0
2017-Nov-19 00:00N 39°27' W 009°44'5 9.1
2017-Nov-18 23:30N 39°22' W 009°45'5 9.2
2017-Nov-18 23:00N 39°18' W 009°45'5 9.1
2017-Nov-18 22:30N 39°13' W 009°47'4 8.8
2017-Nov-18 22:00N 39°09' W 009°48'4 8.9
2017-Nov-18 21:30N 39°04' W 009°48'4 8.7
2017-Nov-18 21:00N 39°00' W 009°49'4 8.7
2017-Nov-18 20:30N 38°56' W 009°50'4 8.5
2017-Nov-18 20:00N 38°52' W 009°50'4 8.2
2017-Nov-18 19:30N 38°47' W 009°51'4 8.3
2017-Nov-18 19:00N 38°43' W 009°51'4 8.3
2017-Nov-18 18:30N 38°39' W 009°50'4 8.3
2017-Nov-18 18:00N 38°35' W 009°49'4 8.4
2017-Nov-18 17:30N 38°31' W 009°48'4 8.4
2017-Nov-18 17:00N 38°27' W 009°47'4 8.4
2017-Nov-18 16:30N 38°23' W 009°46'4 8.4
2017-Nov-18 16:00N 38°19' W 009°44'4 8.6
2017-Nov-18 15:30N 38°15' W 009°43'4 8.9
2017-Nov-18 15:00N 38°10' W 009°42'5 9.0
2017-Nov-18 14:30N 38°06' W 009°40'4 8.9
2017-Nov-18 14:00N 38°02' W 009°39'5 9.2
2017-Nov-18 13:30N 37°57' W 009°38'5 9.3
2017-Nov-18 13:00N 37°53' W 009°36'5 9.3
2017-Nov-18 12:30N 37°48' W 009°35'5 9.2
2017-Nov-18 12:00N 37°44' W 009°34'5 9.1
2017-Nov-18 11:30N 37°39' W 009°33'5 9.1
2017-Nov-18 11:00N 37°35' W 009°31'4 9.0
2017-Nov-18 10:30N 37°30' W 009°30'4 8.9
2017-Nov-18 10:00N 37°26' W 009°28'5 8.9
2017-Nov-18 09:30N 37°22' W 009°27'4 8.8
2017-Nov-18 09:00N 37°17' W 009°26'4 8.6
2017-Nov-18 08:30N 37°13' W 009°25'6 8.6
2017-Nov-18 07:47N 37°07' W 009°24'2 8.3
2017-Nov-18 07:30N 37°05' W 009°23'5 8.6
2017-Nov-18 06:58N 37°00' W 009°22'4 8.5
2017-Nov-18 06:30N 36°56' W 009°21'29 8.9
2017-Nov-18 03:16N 36°40' W 008°51'  
2017-Nov-15 07:07N 35°60' W 005°29'1 9.6
2017-Nov-15 06:59N 36°00' W 005°28'4 8.7
2017-Nov-15 06:30N 36°04' W 005°24'5 6.5
2017-Nov-15 05:42N 36°09' W 005°26'0 0.2
2017-Nov-15 05:12N 36°09' W 005°26'0 0.0
2017-Nov-15 04:48N 36°09' W 005°26'0 0.0
2017-Nov-15 04:18N 36°09' W 005°26'0 0.0
2017-Nov-15 02:48N 36°09' W 005°26'0 0.0
2017-Nov-15 02:30N 36°09' W 005°26'3 0.1
2017-Nov-14 04:31N 36°10' W 005°24'0 0.1
2017-Nov-14 04:19N 36°10' W 005°24'0 0.1
2017-Nov-14 03:46N 36°10' W 005°24'0 0.0
2017-Nov-14 03:10N 36°10' W 005°24'0 0.0
2017-Nov-14 02:37N 36°10' W 005°24'0 0.1
2017-Nov-14 02:28N 36°10' W 005°24'0 0.0
2017-Nov-14 01:52N 36°10' W 005°24'0 0.0
2017-Nov-14 01:22N 36°10' W 005°24'0 0.0
2017-Nov-14 00:58N 36°10' W 005°24'0 0.0
2017-Nov-14 00:28N 36°10' W 005°24'0 0.1
2017-Nov-13 23:58N 36°10' W 005°24'0 0.1
2017-Nov-13 23:28N 36°10' W 005°24'0 0.1
2017-Nov-13 22:58N 36°10' W 005°24'0 0.2
2017-Nov-13 22:30N 36°10' W 005°24'1 2.0
2017-Nov-13 22:00N 36°09' W 005°24'  
Track history (hours):
 
Tides and Currents Weather Stations Pressure Air Temp Water Temp Dewpoint Dewpoint Depression Visibility Wind Speed Wind Dir Waves Ship Positions

Maersk Volta

Last reported at 2017-Nov-19 05:35 UTC. Time now 2017-Nov-19 07:02 UTC.
Position N 40°12' W 009°18'.

Length 176 m; draft 9.3 m.

Type: Cargo ship. MMSI: 563430000.

Date/timePositionNaut miles runAvg speedWind from/ knotsBaromVisibWave heightAir tempDewpointWater temp
2017-Nov-19 05:35N 40°12' W 009°18'8 9.3
2017-Nov-19 04:45N 40°05' W 009°22'3 9.1
2017-Nov-19 04:27N 40°02' W 009°24'4 8.7
2017-Nov-19 03:59N 39°59' W 009°26'4 8.8
2017-Nov-19 03:30N 39°55' W 009°28'5 9.0
2017-Nov-19 03:00N 39°51' W 009°31'4 9.0
2017-Nov-19 02:30N 39°47' W 009°33'5 9.1
2017-Nov-19 02:00N 39°43' W 009°35'4 8.8
2017-Nov-19 01:30N 39°39' W 009°38'4 8.5
2017-Nov-19 01:00N 39°35' W 009°40'4 8.3
2017-Nov-19 00:30N 39°31' W 009°42'5 9.0
2017-Nov-19 00:00N 39°27' W 009°44'5 9.1
2017-Nov-18 23:30N 39°22' W 009°45'5 9.2
2017-Nov-18 23:00N 39°18' W 009°45'5 9.1
2017-Nov-18 22:30N 39°13' W 009°47'4 8.8
2017-Nov-18 22:00N 39°09' W 009°48'4 8.9
2017-Nov-18 21:30N 39°04' W 009°48'4 8.7
2017-Nov-18 21:00N 39°00' W 009°49'4 8.7
2017-Nov-18 20:30N 38°56' W 009°50'4 8.5
2017-Nov-18 20:00N 38°52' W 009°50'4 8.2
2017-Nov-18 19:30N 38°47' W 009°51'4 8.3
2017-Nov-18 19:00N 38°43' W 009°51'4 8.3
2017-Nov-18 18:30N 38°39' W 009°50'4 8.3
2017-Nov-18 18:00N 38°35' W 009°49'4 8.4
2017-Nov-18 17:30N 38°31' W 009°48'4 8.4
2017-Nov-18 17:00N 38°27' W 009°47'4 8.4
2017-Nov-18 16:30N 38°23' W 009°46'4 8.4
2017-Nov-18 16:00N 38°19' W 009°44'4 8.6
2017-Nov-18 15:30N 38°15' W 009°43'4 8.9
2017-Nov-18 15:00N 38°10' W 009°42'5 9.0
2017-Nov-18 14:30N 38°06' W 009°40'4 8.9
2017-Nov-18 14:00N 38°02' W 009°39'5 9.2
2017-Nov-18 13:30N 37°57' W 009°38'5 9.3
2017-Nov-18 13:00N 37°53' W 009°36'5 9.3
2017-Nov-18 12:30N 37°48' W 009°35'5 9.2
2017-Nov-18 12:00N 37°44' W 009°34'5 9.1
2017-Nov-18 11:30N 37°39' W 009°33'5 9.1
2017-Nov-18 11:00N 37°35' W 009°31'4 9.0
2017-Nov-18 10:30N 37°30' W 009°30'4 8.9
2017-Nov-18 10:00N 37°26' W 009°28'5 8.9
2017-Nov-18 09:30N 37°22' W 009°27'4 8.8
2017-Nov-18 09:00N 37°17' W 009°26'4 8.6
2017-Nov-18 08:30N 37°13' W 009°25'6 8.6
2017-Nov-18 07:47N 37°07' W 009°24'2 8.3
2017-Nov-18 07:30N 37°05' W 009°23'5 8.6
2017-Nov-18 06:58N 37°00' W 009°22'4 8.5
2017-Nov-18 06:30N 36°56' W 009°21'29 8.9
2017-Nov-18 03:16N 36°40' W 008°51'  
2017-Nov-15 07:07N 35°60' W 005°29'1 9.6
2017-Nov-15 06:59N 36°00' W 005°28'4 8.7
2017-Nov-15 06:30N 36°04' W 005°24'5 6.5
2017-Nov-15 05:42N 36°09' W 005°26'0 0.2
2017-Nov-15 05:12N 36°09' W 005°26'0 0.0
2017-Nov-15 04:48N 36°09' W 005°26'0 0.0
2017-Nov-15 04:18N 36°09' W 005°26'0 0.0
2017-Nov-15 02:48N 36°09' W 005°26'0 0.0
2017-Nov-15 02:30N 36°09' W 005°26'3 0.1
2017-Nov-14 04:31N 36°10' W 005°24'0 0.1
2017-Nov-14 04:19N 36°10' W 005°24'0 0.1
2017-Nov-14 03:46N 36°10' W 005°24'0 0.0
2017-Nov-14 03:10N 36°10' W 005°24'0 0.0
2017-Nov-14 02:37N 36°10' W 005°24'0 0.1
2017-Nov-14 02:28N 36°10' W 005°24'0 0.0
2017-Nov-14 01:52N 36°10' W 005°24'0 0.0
2017-Nov-14 01:22N 36°10' W 005°24'0 0.0
2017-Nov-14 00:58N 36°10' W 005°24'0 0.0
2017-Nov-14 00:28N 36°10' W 005°24'0 0.1
2017-Nov-13 23:58N 36°10' W 005°24'0 0.1
2017-Nov-13 23:28N 36°10' W 005°24'0 0.1
2017-Nov-13 22:58N 36°10' W 005°24'0 0.2
2017-Nov-13 22:30N 36°10' W 005°24'1 2.0
2017-Nov-13 22:00N 36°09' W 005°24'  

Dump ship's entire track history